createdAt,value
2017-09-14T00:00:16.267Z,0
2017-09-14T00:01:25.118Z,0
2017-09-14T00:02:33.959Z,0
2017-09-14T00:03:42.803Z,0
2017-09-14T00:04:51.980Z,0
2017-09-14T00:06:00.824Z,0
2017-09-14T00:07:09.668Z,0
2017-09-14T00:08:18.512Z,0
2017-09-14T00:09:27.356Z,0
2017-09-14T00:10:36.204Z,0
2017-09-14T00:11:45.201Z,0
2017-09-14T00:12:54.043Z,0
2017-09-14T00:14:02.885Z,0
2017-09-14T00:15:11.727Z,0
2017-09-14T00:16:20.571Z,0
2017-09-14T00:17:29.563Z,0
2017-09-14T00:18:38.407Z,0
2017-09-14T00:19:47.248Z,0
2017-09-14T00:20:56.092Z,0
2017-09-14T00:22:04.943Z,0
2017-09-14T00:23:13.937Z,0
2017-09-14T00:24:22.779Z,0
2017-09-14T00:25:31.622Z,0
2017-09-14T00:26:40.465Z,0
2017-09-14T00:27:49.311Z,0
2017-09-14T00:28:58.254Z,0
2017-09-14T00:30:07.097Z,0
2017-09-14T00:31:15.939Z,0
2017-09-14T00:32:25.116Z,0
2017-09-14T00:33:33.966Z,0
2017-09-14T00:34:42.856Z,0
2017-09-14T00:35:51.696Z,0
2017-09-14T00:37:00.539Z,0
2017-09-14T00:38:09.382Z,0
2017-09-14T00:39:18.226Z,0
2017-09-14T00:40:27.552Z,0
2017-09-14T00:41:36.395Z,0
2017-09-14T00:42:45.237Z,0
2017-09-14T00:43:54.082Z,0
2017-09-14T00:45:02.924Z,0
2017-09-14T00:46:11.918Z,0
2017-09-14T00:47:20.765Z,0
2017-09-14T00:48:29.607Z,0
2017-09-14T00:49:38.447Z,0
2017-09-14T00:50:47.289Z,0
2017-09-14T00:51:56.433Z,0
2017-09-14T00:53:05.279Z,0
2017-09-14T00:54:14.122Z,0
2017-09-14T00:55:22.963Z,0
2017-09-14T00:56:31.806Z,0
2017-09-14T00:57:40.800Z,0
2017-09-14T00:58:49.643Z,0
2017-09-14T00:59:58.485Z,0
2017-09-14T01:01:07.326Z,0
2017-09-14T01:02:16.171Z,0
2017-09-14T01:03:25.109Z,0
2017-09-14T01:04:33.952Z,0
2017-09-14T01:05:42.791Z,0
2017-09-14T01:06:51.634Z,0
2017-09-14T01:08:00.477Z,0
2017-09-14T01:09:09.423Z,0
2017-09-14T01:10:18.267Z,0
2017-09-14T01:11:27.109Z,0
2017-09-14T01:12:35.952Z,0
2017-09-14T01:13:44.795Z,0
2017-09-14T01:14:53.636Z,0
2017-09-14T01:16:02.487Z,0
2017-09-14T01:17:11.327Z,0
2017-09-14T01:18:20.168Z,0
2017-09-14T01:19:29.009Z,0
2017-09-14T01:20:38.052Z,0
2017-09-14T01:21:46.894Z,0
2017-09-14T01:22:55.735Z,0
2017-09-14T01:24:04.579Z,0
2017-09-14T01:25:13.752Z,0
2017-09-14T01:26:22.743Z,0
2017-09-14T01:27:31.582Z,0
2017-09-14T01:28:40.423Z,0
2017-09-14T01:29:49.266Z,0
2017-09-14T01:30:58.108Z,0
2017-09-14T01:32:07.249Z,0
2017-09-14T01:33:16.093Z,0
2017-09-14T01:34:24.932Z,0
2017-09-14T01:35:33.773Z,0
2017-09-14T01:36:42.614Z,0
2017-09-14T01:37:51.705Z,0
2017-09-14T01:39:00.545Z,0
2017-09-14T01:40:09.390Z,0
2017-09-14T01:41:18.231Z,0
2017-09-14T01:42:27.072Z,0
2017-09-14T01:43:36.085Z,0
2017-09-14T01:44:44.902Z,0
2017-09-14T01:45:53.743Z,0
2017-09-14T01:47:02.583Z,0
2017-09-14T01:48:11.763Z,0
2017-09-14T01:49:20.655Z,0
2017-09-14T01:50:29.500Z,0
2017-09-14T01:51:38.343Z,0
2017-09-14T01:52:47.187Z,0
2017-09-14T01:53:56.036Z,0
2017-09-14T01:55:05.178Z,0
2017-09-14T01:56:14.024Z,0
2017-09-14T01:57:23.196Z,0
2017-09-14T01:58:32.037Z,0
2017-09-14T01:59:40.880Z,0
2017-09-14T02:00:49.770Z,0
2017-09-14T02:01:58.612Z,0
2017-09-14T02:03:07.453Z,0
2017-09-14T02:04:16.301Z,0
2017-09-14T02:05:25.146Z,0
2017-09-14T02:06:34.139Z,0
2017-09-14T02:07:42.986Z,0
2017-09-14T02:08:51.829Z,0
2017-09-14T02:10:00.672Z,0
2017-09-14T02:11:09.518Z,0
2017-09-14T02:12:18.362Z,0
2017-09-14T02:13:27.207Z,0
2017-09-14T02:14:36.051Z,0
2017-09-14T02:15:44.894Z,0
2017-09-14T02:16:53.738Z,0
2017-09-14T02:18:02.982Z,0
2017-09-14T02:19:11.823Z,0
2017-09-14T02:20:20.667Z,0
2017-09-14T02:21:29.511Z,0
2017-09-14T02:22:38.355Z,0
2017-09-14T02:23:47.348Z,0
2017-09-14T02:24:56.190Z,0
2017-09-14T02:26:05.037Z,0
2017-09-14T02:27:13.877Z,0
2017-09-14T02:28:22.720Z,0
2017-09-14T02:29:31.714Z,0
2017-09-14T02:30:40.557Z,0
2017-09-14T02:31:49.400Z,0
2017-09-14T02:32:58.243Z,0
2017-09-14T02:34:07.084Z,0
2017-09-14T02:35:15.975Z,0
2017-09-14T02:36:24.815Z,0
2017-09-14T02:37:33.658Z,0
2017-09-14T02:38:42.499Z,0
2017-09-14T02:39:51.340Z,0
2017-09-14T02:41:00.232Z,0
2017-09-14T02:42:09.075Z,0
2017-09-14T02:43:17.915Z,0
2017-09-14T02:44:26.759Z,0
2017-09-14T02:45:35.599Z,0
2017-09-14T02:46:44.591Z,0
2017-09-14T02:47:53.434Z,0
2017-09-14T02:49:02.275Z,0
2017-09-14T02:50:11.118Z,0
2017-09-14T02:51:19.958Z,0
2017-09-14T02:52:28.952Z,0
2017-09-14T02:53:37.793Z,0
2017-09-14T02:54:46.636Z,0
2017-09-14T02:55:55.478Z,0
2017-09-14T02:57:04.322Z,0
2017-09-14T02:58:13.323Z,0
2017-09-14T02:59:22.164Z,0
2017-09-14T03:00:31.007Z,0
2017-09-14T03:01:39.852Z,0
2017-09-14T03:02:48.694Z,0
2017-09-14T03:03:57.835Z,0
2017-09-14T03:05:06.679Z,0
2017-09-14T03:06:15.521Z,0
2017-09-14T03:07:24.365Z,0
2017-09-14T03:08:33.205Z,0
2017-09-14T03:09:42.248Z,0
2017-09-14T03:10:51.089Z,0
2017-09-14T03:11:59.932Z,0
2017-09-14T03:13:08.774Z,0
2017-09-14T03:14:17.620Z,0
2017-09-14T03:15:26.463Z,0
2017-09-14T03:16:35.308Z,0
2017-09-14T03:17:44.150Z,0
2017-09-14T03:18:52.993Z,0
2017-09-14T03:20:01.837Z,0
2017-09-14T03:21:10.730Z,0
2017-09-14T03:22:19.574Z,0
2017-09-14T03:23:28.417Z,0
2017-09-14T03:24:37.259Z,0
2017-09-14T03:25:46.101Z,0
2017-09-14T03:26:55.297Z,0
2017-09-14T03:28:04.142Z,0
2017-09-14T03:29:12.983Z,0
2017-09-14T03:30:21.828Z,0
2017-09-14T03:31:30.672Z,0
2017-09-14T03:32:39.516Z,0
2017-09-14T03:33:48.358Z,0
2017-09-14T03:34:57.200Z,0
2017-09-14T03:36:06.043Z,0
2017-09-14T03:37:14.885Z,0
2017-09-14T03:38:23.885Z,0
2017-09-14T03:39:32.727Z,0
2017-09-14T03:40:41.572Z,0
2017-09-14T03:41:50.417Z,0
2017-09-14T03:42:59.259Z,0
2017-09-14T03:44:08.153Z,0
2017-09-14T03:45:16.995Z,0
2017-09-14T03:46:25.840Z,0
2017-09-14T03:47:34.684Z,0
2017-09-14T03:48:43.526Z,0
2017-09-14T03:49:52.468Z,0
2017-09-14T03:51:01.311Z,0
2017-09-14T03:52:10.154Z,0
2017-09-14T03:53:18.998Z,0
2017-09-14T03:54:27.842Z,0
2017-09-14T03:55:36.686Z,0
2017-09-14T03:56:45.528Z,0
2017-09-14T03:57:54.375Z,0
2017-09-14T03:59:03.216Z,0
2017-09-14T04:00:12.062Z,0
2017-09-14T04:01:21.051Z,0
2017-09-14T04:02:29.894Z,0
2017-09-14T04:03:38.737Z,0
2017-09-14T04:04:47.582Z,0
2017-09-14T04:05:56.420Z,0
2017-09-14T04:07:05.513Z,0
2017-09-14T04:08:14.355Z,0
2017-09-14T04:09:23.195Z,0
2017-09-14T04:10:32.040Z,0
2017-09-14T04:11:40.887Z,0
2017-09-14T04:12:49.727Z,0
2017-09-14T04:13:58.570Z,0
2017-09-14T04:15:07.416Z,0
2017-09-14T04:16:16.258Z,0
2017-09-14T04:17:25.440Z,0
2017-09-14T04:18:34.585Z,0
2017-09-14T04:19:43.759Z,0
2017-09-14T04:20:52.597Z,0
2017-09-14T04:22:01.442Z,0
2017-09-14T04:23:10.634Z,0
2017-09-14T04:24:19.624Z,0
2017-09-14T04:25:28.468Z,0
2017-09-14T04:26:37.308Z,0
2017-09-14T04:27:46.149Z,0
2017-09-14T04:28:54.995Z,0
2017-09-14T04:30:03.837Z,4
2017-09-14T04:31:12.678Z,4
2017-09-14T04:32:21.522Z,0
2017-09-14T04:33:30.360Z,4
2017-09-14T04:34:39.202Z,0
2017-09-14T04:35:48.045Z,4
2017-09-14T04:36:56.888Z,4
2017-09-14T04:38:05.731Z,8
2017-09-14T04:39:14.570Z,8
2017-09-14T04:40:23.409Z,8
2017-09-14T04:41:32.299Z,12
2017-09-14T04:42:41.144Z,12
2017-09-14T04:43:49.986Z,16
2017-09-14T04:44:58.830Z,20
2017-09-14T04:46:07.671Z,20
2017-09-14T04:47:16.661Z,24
2017-09-14T04:48:25.504Z,28
2017-09-14T04:49:34.346Z,36
2017-09-14T04:50:43.189Z,36
2017-09-14T04:51:52.030Z,44
2017-09-14T04:53:01.270Z,48
2017-09-14T04:54:10.109Z,56
2017-09-14T04:55:18.950Z,60
2017-09-14T04:56:27.792Z,68
2017-09-14T04:57:36.632Z,80
2017-09-14T04:58:45.525Z,84
2017-09-14T04:59:54.372Z,96
2017-09-14T05:01:03.208Z,104
2017-09-14T05:02:12.049Z,116
2017-09-14T05:03:20.892Z,124
2017-09-14T05:04:29.890Z,136
2017-09-14T05:05:38.732Z,148
2017-09-14T05:06:47.578Z,160
2017-09-14T05:07:56.755Z,172
2017-09-14T05:09:05.928Z,184
2017-09-14T05:10:15.172Z,196
2017-09-14T05:11:24.347Z,212
2017-09-14T05:12:33.191Z,224
2017-09-14T05:13:42.036Z,236
2017-09-14T05:14:50.877Z,264
2017-09-14T05:15:59.818Z,280
2017-09-14T05:17:08.660Z,292
2017-09-14T05:18:17.501Z,304
2017-09-14T05:19:26.345Z,324
2017-09-14T05:20:35.187Z,340
2017-09-14T05:21:44.180Z,352
2017-09-14T05:22:53.021Z,368
2017-09-14T05:24:01.865Z,384
2017-09-14T05:25:10.706Z,396
2017-09-14T05:26:19.549Z,412
2017-09-14T05:27:28.541Z,428
2017-09-14T05:28:37.385Z,440
2017-09-14T05:29:46.244Z,456
2017-09-14T05:30:55.072Z,472
2017-09-14T05:32:03.914Z,488
2017-09-14T05:33:12.907Z,504
2017-09-14T05:34:21.752Z,516
2017-09-14T05:35:30.601Z,528
2017-09-14T05:36:39.776Z,544
2017-09-14T05:37:48.617Z,552
2017-09-14T05:38:57.460Z,564
2017-09-14T05:40:06.305Z,584
2017-09-14T05:41:15.150Z,596
2017-09-14T05:42:23.994Z,612
2017-09-14T05:43:32.837Z,620
2017-09-14T05:44:41.834Z,632
2017-09-14T05:45:50.678Z,632
2017-09-14T05:46:59.519Z,636
2017-09-14T05:48:08.360Z,600
2017-09-14T05:49:17.205Z,588
2017-09-14T05:50:26.051Z,592
2017-09-14T05:51:34.893Z,584
2017-09-14T05:52:43.739Z,596
2017-09-14T05:53:52.578Z,616
2017-09-14T05:55:01.420Z,652
2017-09-14T05:56:10.264Z,680
2017-09-14T05:57:19.108Z,684
2017-09-14T05:58:27.953Z,708
2017-09-14T05:59:36.797Z,720
2017-09-14T06:00:45.641Z,748
2017-09-14T06:01:54.533Z,760
2017-09-14T06:03:03.374Z,772
2017-09-14T06:04:12.216Z,780
2017-09-14T06:05:21.058Z,784
2017-09-14T06:06:29.900Z,792
2017-09-14T06:07:38.794Z,808
2017-09-14T06:08:47.634Z,812
2017-09-14T06:09:56.477Z,820
2017-09-14T06:11:05.319Z,828
2017-09-14T06:12:14.160Z,836
2017-09-14T06:13:23.152Z,844
2017-09-14T06:14:31.995Z,848
2017-09-14T06:15:41.178Z,852
2017-09-14T06:16:50.023Z,860
2017-09-14T06:17:58.867Z,876
2017-09-14T06:19:07.707Z,900
2017-09-14T06:20:16.550Z,876
2017-09-14T06:21:25.418Z,884
2017-09-14T06:22:34.239Z,888
2017-09-14T06:23:43.412Z,836
2017-09-14T06:24:52.303Z,888
2017-09-14T06:26:01.147Z,904
2017-09-14T06:27:09.989Z,908
2017-09-14T06:28:18.832Z,920
2017-09-14T06:29:27.677Z,924
2017-09-14T06:30:37.003Z,928
2017-09-14T06:31:45.847Z,928
2017-09-14T06:32:54.692Z,932
2017-09-14T06:34:03.537Z,948
2017-09-14T06:35:12.758Z,952
2017-09-14T06:36:21.649Z,960
2017-09-14T06:37:30.493Z,960
2017-09-14T06:38:39.338Z,960
2017-09-14T06:39:48.185Z,956
2017-09-14T06:40:57.028Z,972
2017-09-14T06:42:06.176Z,980
2017-09-14T06:43:15.017Z,984
2017-09-14T06:44:23.861Z,988
2017-09-14T06:45:32.703Z,988
2017-09-14T06:46:41.881Z,984
2017-09-14T06:47:50.881Z,1000
2017-09-14T06:49:00.062Z,996
2017-09-14T06:50:09.240Z,996
2017-09-14T06:51:18.083Z,1008
2017-09-14T06:52:26.926Z,1008
2017-09-14T06:53:35.769Z,1028
2017-09-14T06:54:44.614Z,1032
2017-09-14T06:55:53.459Z,1040
2017-09-14T06:57:02.302Z,1076
2017-09-14T06:58:11.143Z,1064
2017-09-14T06:59:20.144Z,1100
2017-09-14T07:00:28.994Z,1276
2017-09-14T07:01:37.837Z,1092
2017-09-14T07:02:46.681Z,1080
2017-09-14T07:03:55.523Z,1152
2017-09-14T07:05:04.617Z,1116
2017-09-14T07:06:13.459Z,1124
2017-09-14T07:07:22.300Z,1144
2017-09-14T07:08:31.143Z,2136
2017-09-14T07:09:39.983Z,1100
2017-09-14T07:10:49.210Z,1112
2017-09-14T07:11:58.056Z,1104
2017-09-14T07:13:06.906Z,1184
2017-09-14T07:14:15.754Z,1124
2017-09-14T07:15:24.597Z,1120
2017-09-14T07:16:33.542Z,1128
2017-09-14T07:17:42.389Z,1148
2017-09-14T07:18:51.233Z,1192
2017-09-14T07:20:00.078Z,1196
2017-09-14T07:21:08.921Z,1208
2017-09-14T07:22:18.115Z,1260
2017-09-14T07:23:26.971Z,1328
2017-09-14T07:24:35.815Z,1492
2017-09-14T07:25:44.657Z,1520
2017-09-14T07:26:53.500Z,1428
2017-09-14T07:28:02.445Z,1336
2017-09-14T07:29:11.287Z,1300
2017-09-14T07:30:20.137Z,1212
2017-09-14T07:31:29.311Z,1184
2017-09-14T07:32:38.153Z,1064
2017-09-14T07:33:47.046Z,1056
2017-09-14T07:34:55.887Z,1080
2017-09-14T07:36:04.730Z,1144
2017-09-14T07:37:13.572Z,1160
2017-09-14T07:38:22.415Z,1156
2017-09-14T07:39:31.407Z,1156
2017-09-14T07:40:40.255Z,1176
2017-09-14T07:41:49.102Z,1168
2017-09-14T07:42:57.948Z,1168
2017-09-14T07:44:06.793Z,1172
2017-09-14T07:45:15.688Z,1164
2017-09-14T07:46:24.536Z,1164
2017-09-14T07:47:33.382Z,1172
2017-09-14T07:48:42.223Z,1176
2017-09-14T07:49:51.070Z,1176
2017-09-14T07:51:00.063Z,1180
2017-09-14T07:52:08.909Z,1176
2017-09-14T07:53:17.754Z,1176
2017-09-14T07:54:26.598Z,1184
2017-09-14T07:55:35.441Z,1184
2017-09-14T07:56:44.333Z,1196
2017-09-14T07:57:53.177Z,1196
2017-09-14T07:59:02.023Z,1204
2017-09-14T08:00:10.869Z,1200
2017-09-14T08:01:20.046Z,1204
2017-09-14T08:02:29.039Z,1212
2017-09-14T08:03:37.883Z,1208
2017-09-14T08:04:46.728Z,1212
2017-09-14T08:05:55.584Z,1212
2017-09-14T08:07:04.437Z,1232
2017-09-14T08:08:13.282Z,1236
2017-09-14T08:09:22.126Z,1244
2017-09-14T08:10:30.971Z,1248
2017-09-14T08:11:39.815Z,1240
2017-09-14T08:12:48.660Z,1264
2017-09-14T08:13:57.557Z,1252
2017-09-14T08:15:06.401Z,1268
2017-09-14T08:16:15.246Z,1304
2017-09-14T08:17:24.090Z,1360
2017-09-14T08:18:32.954Z,1292
2017-09-14T08:19:41.854Z,1308
2017-09-14T08:20:50.671Z,1296
2017-09-14T08:21:59.516Z,1412
2017-09-14T08:23:08.360Z,1460
2017-09-14T08:24:17.207Z,1308
2017-09-14T08:25:26.302Z,1344
2017-09-14T08:26:35.145Z,1448
2017-09-14T08:27:43.991Z,2048
2017-09-14T08:28:52.836Z,3124
2017-09-14T08:30:01.680Z,1972
2017-09-14T08:31:10.773Z,1716
2017-09-14T08:32:19.617Z,1652
2017-09-14T08:33:28.462Z,1544
2017-09-14T08:34:37.307Z,1888
2017-09-14T08:35:46.152Z,2940
2017-09-14T08:36:55.161Z,2008
2017-09-14T08:38:04.010Z,2204
2017-09-14T08:39:12.854Z,1548
2017-09-14T08:40:21.698Z,2028
2017-09-14T08:41:30.542Z,2060
2017-09-14T08:42:39.537Z,2172
2017-09-14T08:43:48.383Z,3368
2017-09-14T08:44:57.227Z,3068
2017-09-14T08:46:06.072Z,3024
2017-09-14T08:47:14.917Z,2252
2017-09-14T08:48:23.952Z,2852
2017-09-14T08:49:32.800Z,5172
2017-09-14T08:50:41.660Z,4244
2017-09-14T08:51:50.501Z,4012
2017-09-14T08:52:59.349Z,3060
2017-09-14T08:54:08.679Z,2076
2017-09-14T08:55:17.525Z,3488
2017-09-14T08:56:26.372Z,5676
2017-09-14T08:57:35.884Z,5052
2017-09-14T08:58:44.730Z,4592
2017-09-14T08:59:53.824Z,2856
2017-09-14T09:01:02.670Z,2752
2017-09-14T09:02:11.515Z,2732
2017-09-14T09:03:20.360Z,3028
2017-09-14T09:04:29.206Z,3184
2017-09-14T09:05:38.350Z,2816
2017-09-14T09:06:47.196Z,4356
2017-09-14T09:07:56.041Z,2940
2017-09-14T09:09:04.886Z,2460
2017-09-14T09:10:13.731Z,2660
2017-09-14T09:11:22.629Z,3796
2017-09-14T09:12:31.473Z,3612
2017-09-14T09:13:40.318Z,4940
2017-09-14T09:14:49.163Z,4376
2017-09-14T09:15:58.106Z,2684
2017-09-14T09:17:07.102Z,2612
2017-09-14T09:18:15.946Z,2624
2017-09-14T09:19:24.792Z,1912
2017-09-14T09:20:33.639Z,2012
2017-09-14T09:21:42.486Z,2508
2017-09-14T09:22:51.633Z,4520
2017-09-14T09:24:00.480Z,4484
2017-09-14T09:25:09.663Z,3864
2017-09-14T09:26:18.506Z,2444
2017-09-14T09:27:27.353Z,2096
2017-09-14T09:28:36.348Z,1768
2017-09-14T09:29:45.191Z,2032
2017-09-14T09:30:54.038Z,2804
2017-09-14T09:32:02.935Z,4588
2017-09-14T09:33:11.779Z,4056
2017-09-14T09:34:20.731Z,3636
2017-09-14T09:35:29.578Z,3980
2017-09-14T09:36:38.424Z,3652
2017-09-14T09:37:47.269Z,3908
2017-09-14T09:38:56.115Z,3904
2017-09-14T09:40:05.262Z,5116
2017-09-14T09:41:14.107Z,4112
2017-09-14T09:42:22.953Z,3064
2017-09-14T09:43:31.853Z,3604
2017-09-14T09:44:40.699Z,3476
2017-09-14T09:45:49.691Z,4788
2017-09-14T09:46:58.541Z,3648
2017-09-14T09:48:07.387Z,4736
2017-09-14T09:49:16.235Z,3816
2017-09-14T09:50:25.084Z,3712
2017-09-14T09:51:34.332Z,4872
2017-09-14T09:52:43.177Z,4156
2017-09-14T09:53:52.025Z,2872
2017-09-14T09:55:00.873Z,3080
2017-09-14T09:56:09.722Z,2388
2017-09-14T09:57:18.871Z,2656
2017-09-14T09:58:27.716Z,3228
2017-09-14T09:59:36.896Z,4520
2017-09-14T10:00:45.741Z,5244
2017-09-14T10:01:54.588Z,3956
2017-09-14T10:03:03.535Z,4932
2017-09-14T10:04:12.386Z,6116
2017-09-14T10:05:21.234Z,4420
2017-09-14T10:06:30.080Z,2824
2017-09-14T10:07:38.928Z,3556
2017-09-14T10:08:47.922Z,2784
2017-09-14T10:09:56.770Z,3088
2017-09-14T10:11:05.634Z,2308
2017-09-14T10:12:14.483Z,2780
2017-09-14T10:13:23.329Z,2616
2017-09-14T10:14:32.174Z,3048
2017-09-14T10:15:41.069Z,4208
2017-09-14T10:16:49.914Z,2656
2017-09-14T10:17:59.109Z,4676
2017-09-14T10:19:07.957Z,6056
2017-09-14T10:20:17.487Z,6648
2017-09-14T10:21:26.330Z,4572
2017-09-14T10:22:35.174Z,2908
2017-09-14T10:23:44.019Z,2768
2017-09-14T10:24:52.868Z,3876
2017-09-14T10:26:01.863Z,3812
2017-09-14T10:27:10.709Z,4140
2017-09-14T10:28:19.555Z,4712
2017-09-14T10:29:28.403Z,2540
2017-09-14T10:30:37.584Z,1956
2017-09-14T10:31:46.426Z,2312
2017-09-14T10:32:55.643Z,2508
2017-09-14T10:34:04.488Z,3288
2017-09-14T10:35:13.334Z,4544
2017-09-14T10:36:22.518Z,5340
2017-09-14T10:37:31.413Z,5116
2017-09-14T10:38:40.258Z,3764
2017-09-14T10:39:49.105Z,2204
2017-09-14T10:40:57.950Z,2604
2017-09-14T10:42:06.796Z,5056
2017-09-14T10:43:15.894Z,5988
2017-09-14T10:44:25.084Z,4820
2017-09-14T10:45:34.263Z,2900
2017-09-14T10:46:43.110Z,2844
2017-09-14T10:47:51.953Z,2700
2017-09-14T10:49:00.850Z,3448
2017-09-14T10:50:10.025Z,4028
2017-09-14T10:51:18.873Z,4536
2017-09-14T10:52:27.721Z,4368
2017-09-14T10:53:36.900Z,4160
2017-09-14T10:54:46.047Z,3236
2017-09-14T10:55:54.893Z,6052
2017-09-14T10:57:03.738Z,8252
2017-09-14T10:58:12.586Z,8140
2017-09-14T10:59:21.434Z,4856
2017-09-14T11:00:30.380Z,4012
2017-09-14T11:01:39.225Z,3276
2017-09-14T11:02:48.072Z,3708
2017-09-14T11:03:56.919Z,4480
2017-09-14T11:05:05.776Z,5676
2017-09-14T11:06:14.614Z,4216
2017-09-14T11:07:23.458Z,5092
2017-09-14T11:08:32.303Z,7648
2017-09-14T11:09:41.150Z,7788
2017-09-14T11:10:49.996Z,6084
2017-09-14T11:11:58.995Z,4384
2017-09-14T11:13:07.842Z,4296
2017-09-14T11:14:16.688Z,5780
2017-09-14T11:15:25.535Z,6392
2017-09-14T11:16:34.384Z,7084
2017-09-14T11:17:43.381Z,4536
2017-09-14T11:18:52.230Z,4200
2017-09-14T11:20:01.076Z,3508
2017-09-14T11:21:09.924Z,3396
2017-09-14T11:22:18.771Z,3488
2017-09-14T11:23:27.720Z,3980
2017-09-14T11:24:36.565Z,4816
2017-09-14T11:25:45.745Z,7356
2017-09-14T11:26:54.594Z,7916
2017-09-14T11:28:03.440Z,7572
2017-09-14T11:29:12.436Z,7924
2017-09-14T11:30:21.520Z,8608
2017-09-14T11:31:30.369Z,6408
2017-09-14T11:32:39.215Z,6744
2017-09-14T11:33:48.062Z,4752
2017-09-14T11:34:56.911Z,5060
2017-09-14T11:36:05.757Z,7684
2017-09-14T11:37:14.605Z,7592
2017-09-14T11:38:23.452Z,7160
2017-09-14T11:39:32.350Z,6428
2017-09-14T11:40:41.200Z,6484
2017-09-14T11:41:50.044Z,4068
2017-09-14T11:42:58.892Z,6360
2017-09-14T11:44:07.739Z,7728
2017-09-14T11:45:16.589Z,7832
2017-09-14T11:46:26.257Z,9328
2017-09-14T11:47:35.109Z,9668
2017-09-14T11:48:43.963Z,8000
2017-09-14T11:49:52.809Z,9444
2017-09-14T11:51:01.656Z,5872
2017-09-14T11:52:10.505Z,9432
2017-09-14T11:53:19.351Z,26272
2017-09-14T11:54:28.201Z,59200
2017-09-14T11:55:37.046Z,58464
2017-09-14T11:56:45.897Z,57696
2017-09-14T11:57:54.746Z,54368
2017-09-14T11:59:03.595Z,55520
2017-09-14T12:00:12.746Z,58304
2017-09-14T12:01:21.596Z,27168
2017-09-14T12:02:30.458Z,11048
2017-09-14T12:03:39.306Z,7120
2017-09-14T12:04:48.156Z,7612
2017-09-14T12:05:57.105Z,7172
2017-09-14T12:07:05.957Z,6060
2017-09-14T12:08:14.806Z,7232
2017-09-14T12:09:23.656Z,8524
2017-09-14T12:10:32.503Z,8296
2017-09-14T12:11:41.401Z,13216
2017-09-14T12:12:50.252Z,10000
2017-09-14T12:13:59.099Z,9656
2017-09-14T12:15:07.952Z,10360
2017-09-14T12:16:16.803Z,6852
2017-09-14T12:17:25.801Z,3764
2017-09-14T12:18:34.649Z,2540
2017-09-14T12:19:43.499Z,2852
2017-09-14T12:20:52.346Z,2728
2017-09-14T12:22:01.194Z,2524
2017-09-14T12:23:10.089Z,1712
2017-09-14T12:24:18.946Z,980
2017-09-14T12:25:27.798Z,1088
2017-09-14T12:26:36.973Z,928
2017-09-14T12:27:45.819Z,956
2017-09-14T12:28:54.765Z,1784
2017-09-14T12:30:03.613Z,3828
2017-09-14T12:31:12.796Z,6504
2017-09-14T12:32:21.640Z,6660
2017-09-14T12:33:30.821Z,12072
2017-09-14T12:34:39.768Z,7776
2017-09-14T12:35:48.613Z,6736
2017-09-14T12:36:57.462Z,6636
2017-09-14T12:38:06.308Z,5208
2017-09-14T12:39:15.152Z,4560
2017-09-14T12:40:24.100Z,5428
2017-09-14T12:41:32.945Z,8916
2017-09-14T12:42:41.792Z,8496
2017-09-14T12:43:50.640Z,8088
2017-09-14T12:44:59.488Z,9684
2017-09-14T12:46:08.386Z,19712
2017-09-14T12:47:17.234Z,21504
2017-09-14T12:48:26.084Z,18208
2017-09-14T12:49:34.930Z,9728
2017-09-14T12:50:43.780Z,10168
2017-09-14T12:51:52.778Z,9604
2017-09-14T12:53:01.626Z,7864
2017-09-14T12:54:10.576Z,6260
2017-09-14T12:55:19.804Z,6432
2017-09-14T12:56:28.652Z,4312
2017-09-14T12:57:37.549Z,4184
2017-09-14T12:58:46.396Z,3636
2017-09-14T12:59:55.244Z,3684
2017-09-14T13:01:04.241Z,3588
2017-09-14T13:02:13.090Z,5144
2017-09-14T13:03:22.241Z,4368
2017-09-14T13:04:31.088Z,3340
2017-09-14T13:05:39.932Z,5052
2017-09-14T13:06:48.779Z,4232
2017-09-14T13:07:57.627Z,4200
2017-09-14T13:09:06.623Z,4616
2017-09-14T13:10:15.472Z,5252
2017-09-14T13:11:24.319Z,7016
2017-09-14T13:12:33.498Z,8532
2017-09-14T13:13:42.366Z,7912
2017-09-14T13:14:51.686Z,4740
2017-09-14T13:16:00.541Z,2284
2017-09-14T13:17:09.720Z,1328
2017-09-14T13:18:18.568Z,800
2017-09-14T13:19:27.415Z,592
2017-09-14T13:20:36.363Z,652
2017-09-14T13:21:45.209Z,988
2017-09-14T13:22:54.054Z,1664
2017-09-14T13:24:02.899Z,2216
2017-09-14T13:25:11.746Z,2140
2017-09-14T13:26:20.595Z,2052
2017-09-14T13:27:29.440Z,1912
2017-09-14T13:28:38.284Z,1764
2017-09-14T13:29:47.130Z,1604
2017-09-14T13:30:55.974Z,1364
2017-09-14T13:32:04.870Z,1212
2017-09-14T13:33:13.718Z,1160
2017-09-14T13:34:22.566Z,1180
2017-09-14T13:35:31.410Z,1408
2017-09-14T13:36:40.253Z,1808
2017-09-14T13:37:49.247Z,2216
2017-09-14T13:38:58.094Z,2608
2017-09-14T13:40:06.950Z,2760
2017-09-14T13:41:15.800Z,2680
2017-09-14T13:42:24.984Z,2460
2017-09-14T13:43:34.079Z,2296
2017-09-14T13:44:42.922Z,2356
2017-09-14T13:45:51.766Z,2600
2017-09-14T13:47:00.612Z,2820
2017-09-14T13:48:09.454Z,3080
2017-09-14T13:49:18.350Z,3288
2017-09-14T13:50:27.200Z,3716
2017-09-14T13:51:36.049Z,4368
2017-09-14T13:52:44.891Z,4688
2017-09-14T13:53:53.744Z,4884
2017-09-14T13:55:02.744Z,5056
2017-09-14T13:56:11.596Z,4504
2017-09-14T13:57:20.441Z,4428
2017-09-14T13:58:29.285Z,5328
2017-09-14T13:59:38.128Z,6064
2017-09-14T14:00:47.375Z,6888
2017-09-14T14:01:56.219Z,7244
2017-09-14T14:03:05.062Z,7356
2017-09-14T14:04:13.906Z,9008
2017-09-14T14:05:22.764Z,9212
2017-09-14T14:06:31.772Z,9596
2017-09-14T14:07:40.626Z,8256
2017-09-14T14:08:49.473Z,7868
2017-09-14T14:09:58.325Z,7436
2017-09-14T14:11:07.190Z,6832
2017-09-14T14:12:16.087Z,6756
2017-09-14T14:13:24.933Z,6540
2017-09-14T14:14:33.817Z,6060
2017-09-14T14:15:42.799Z,5744
2017-09-14T14:16:51.672Z,5832
2017-09-14T14:18:00.617Z,6180
2017-09-14T14:19:09.471Z,6684
2017-09-14T14:20:18.330Z,6980
2017-09-14T14:21:27.189Z,6968
2017-09-14T14:22:36.050Z,6336
2017-09-14T14:23:45.051Z,5304
2017-09-14T14:24:53.900Z,4736
2017-09-14T14:26:02.744Z,4716
2017-09-14T14:27:11.589Z,5024
2017-09-14T14:28:20.461Z,5560
2017-09-14T14:29:29.786Z,5984
2017-09-14T14:30:38.632Z,5888
2017-09-14T14:31:47.478Z,5692
2017-09-14T14:32:56.357Z,5620
2017-09-14T14:34:05.219Z,6176
2017-09-14T14:35:14.116Z,6876
2017-09-14T14:36:22.963Z,7316
2017-09-14T14:37:31.811Z,7536
2017-09-14T14:38:40.656Z,7408
2017-09-14T14:39:49.834Z,7708
2017-09-14T14:40:58.686Z,7460
2017-09-14T14:42:07.532Z,6548
2017-09-14T14:43:16.383Z,4740
2017-09-14T14:44:25.232Z,3652
2017-09-14T14:45:34.078Z,3300
2017-09-14T14:46:43.073Z,3420
2017-09-14T14:47:51.918Z,3640
2017-09-14T14:49:00.763Z,3892
2017-09-14T14:50:09.609Z,4356
2017-09-14T14:51:18.788Z,5084
2017-09-14T14:52:27.680Z,5724
2017-09-14T14:53:36.527Z,6752
2017-09-14T14:54:45.700Z,8112
2017-09-14T14:55:54.891Z,8784
2017-09-14T14:57:03.741Z,8552
2017-09-14T14:58:12.684Z,7472
2017-09-14T14:59:21.530Z,6420
2017-09-14T15:00:30.376Z,5932
2017-09-14T15:01:39.219Z,5556
2017-09-14T15:02:48.063Z,4892
2017-09-14T15:03:57.057Z,4636
2017-09-14T15:05:05.904Z,4832
2017-09-14T15:06:14.747Z,5092
2017-09-14T15:07:24.260Z,4908
2017-09-14T15:08:33.108Z,4668
2017-09-14T15:09:42.098Z,4532
2017-09-14T15:10:50.942Z,4156
2017-09-14T15:11:59.788Z,3620
2017-09-14T15:13:08.634Z,3344
2017-09-14T15:14:17.483Z,2992
2017-09-14T15:15:26.488Z,2908
2017-09-14T15:16:35.335Z,2980
2017-09-14T15:17:44.514Z,3208
2017-09-14T15:18:53.360Z,3228
2017-09-14T15:20:02.205Z,3224
2017-09-14T15:21:11.537Z,3300
2017-09-14T15:22:20.383Z,3488
2017-09-14T15:23:29.561Z,3748
2017-09-14T15:24:38.405Z,2852
2017-09-14T15:25:47.258Z,2276
2017-09-14T15:26:56.210Z,2012
2017-09-14T15:28:05.075Z,3196
2017-09-14T15:29:13.925Z,5444
2017-09-14T15:30:22.779Z,8136
2017-09-14T15:31:31.633Z,6524
2017-09-14T15:32:40.540Z,6384
2017-09-14T15:33:49.393Z,4244
2017-09-14T15:34:58.257Z,3724
2017-09-14T15:36:07.112Z,3244
2017-09-14T15:37:15.974Z,2732
2017-09-14T15:38:25.074Z,2944
2017-09-14T15:39:34.251Z,3776
2017-09-14T15:40:43.097Z,3792
2017-09-14T15:41:51.943Z,3596
2017-09-14T15:43:01.125Z,3136
2017-09-14T15:44:10.033Z,4024
2017-09-14T15:45:18.880Z,3624
2017-09-14T15:46:27.724Z,3200
2017-09-14T15:47:36.578Z,2588
2017-09-14T15:48:45.926Z,2224